sensor_id;sensor_type;location;lat;lon;timestamp;P1;durP1;ratioP1;P2;durP2;ratioP2
58242;SDS011;50118;53.232;8.252;2024-03-08T00:01:14;46.78;;;21.77;;
58242;SDS011;50118;53.232;8.252;2024-03-08T00:03:39;45.70;;;21.60;;
58242;SDS011;50118;53.232;8.252;2024-03-08T00:06:05;48.85;;;21.70;;
58242;SDS011;50118;53.232;8.252;2024-03-08T00:08:31;49.67;;;22.05;;
58242;SDS011;50118;53.232;8.252;2024-03-08T00:10:56;44.70;;;21.10;;
58242;SDS011;50118;53.232;8.252;2024-03-08T00:13:22;45.35;;;20.38;;
58242;SDS011;50118;53.232;8.252;2024-03-08T00:15:49;47.35;;;21.67;;
58242;SDS011;50118;53.232;8.252;2024-03-08T00:18:15;45.28;;;20.85;;
58242;SDS011;50118;53.232;8.252;2024-03-08T00:20:41;45.67;;;20.85;;
58242;SDS011;50118;53.232;8.252;2024-03-08T00:23:07;50.33;;;22.60;;
58242;SDS011;50118;53.232;8.252;2024-03-08T00:25:32;44.90;;;21.73;;
58242;SDS011;50118;53.232;8.252;2024-03-08T00:27:59;43.85;;;20.25;;
58242;SDS011;50118;53.232;8.252;2024-03-08T00:30:25;46.08;;;20.50;;
58242;SDS011;50118;53.232;8.252;2024-03-08T00:32:50;42.40;;;20.90;;
58242;SDS011;50118;53.232;8.252;2024-03-08T00:35:16;48.60;;;21.48;;
58242;SDS011;50118;53.232;8.252;2024-03-08T00:37:41;42.90;;;20.98;;
58242;SDS011;50118;53.232;8.252;2024-03-08T00:40:07;44.17;;;20.45;;
58242;SDS011;50118;53.232;8.252;2024-03-08T00:42:34;47.63;;;21.75;;
58242;SDS011;50118;53.232;8.252;2024-03-08T00:45:00;48.80;;;21.70;;
58242;SDS011;50118;53.232;8.252;2024-03-08T00:47:25;46.00;;;20.88;;
58242;SDS011;50118;53.232;8.252;2024-03-08T00:49:52;41.58;;;20.17;;
58242;SDS011;50118;53.232;8.252;2024-03-08T00:52:18;41.72;;;20.80;;
58242;SDS011;50118;53.232;8.252;2024-03-08T00:54:44;44.83;;;20.48;;
58242;SDS011;50118;53.232;8.252;2024-03-08T00:57:10;47.25;;;21.05;;
58242;SDS011;50118;53.232;8.252;2024-03-08T00:59:37;44.97;;;19.92;;
58242;SDS011;50118;53.232;8.252;2024-03-08T01:02:03;42.42;;;19.75;;
58242;SDS011;50118;53.232;8.252;2024-03-08T01:04:28;45.88;;;19.88;;
58242;SDS011;50118;53.232;8.252;2024-03-08T01:06:55;43.40;;;19.63;;
58242;SDS011;50118;53.232;8.252;2024-03-08T01:09:21;46.15;;;20.35;;
58242;SDS011;50118;53.232;8.252;2024-03-08T01:11:47;43.30;;;19.58;;
58242;SDS011;50118;53.232;8.252;2024-03-08T01:14:13;43.97;;;19.40;;
58242;SDS011;50118;53.232;8.252;2024-03-08T01:16:38;41.17;;;18.55;;
58242;SDS011;50118;53.232;8.252;2024-03-08T01:19:04;42.95;;;20.27;;
58242;SDS011;50118;53.232;8.252;2024-03-08T01:21:29;39.10;;;18.98;;
58242;SDS011;50118;53.232;8.252;2024-03-08T01:23:55;42.95;;;19.52;;
58242;SDS011;50118;53.232;8.252;2024-03-08T01:26:20;37.70;;;18.02;;
58242;SDS011;50118;53.232;8.252;2024-03-08T01:28:46;44.67;;;19.48;;
58242;SDS011;50118;53.232;8.252;2024-03-08T01:31:11;42.20;;;18.27;;
58242;SDS011;50118;53.232;8.252;2024-03-08T01:33:38;45.15;;;19.58;;
58242;SDS011;50118;53.232;8.252;2024-03-08T01:36:03;40.72;;;18.88;;
58242;SDS011;50118;53.232;8.252;2024-03-08T01:38:29;43.10;;;19.25;;
58242;SDS011;50118;53.232;8.252;2024-03-08T01:40:55;41.80;;;19.52;;
58242;SDS011;50118;53.232;8.252;2024-03-08T01:43:21;43.78;;;19.30;;
58242;SDS011;50118;53.232;8.252;2024-03-08T01:45:48;42.63;;;18.63;;
58242;SDS011;50118;53.232;8.252;2024-03-08T01:48:14;41.53;;;19.58;;
58242;SDS011;50118;53.232;8.252;2024-03-08T01:50:42;41.03;;;18.13;;
58242;SDS011;50118;53.232;8.252;2024-03-08T01:53:08;39.55;;;19.00;;
58242;SDS011;50118;53.232;8.252;2024-03-08T01:55:37;37.13;;;18.42;;
58242;SDS011;50118;53.232;8.252;2024-03-08T01:58:07;37.60;;;16.58;;
58242;SDS011;50118;53.232;8.252;2024-03-08T02:00:35;38.17;;;18.08;;
58242;SDS011;50118;53.232;8.252;2024-03-08T02:03:05;35.78;;;17.48;;
58242;SDS011;50118;53.232;8.252;2024-03-08T02:05:30;32.92;;;16.63;;
58242;SDS011;50118;53.232;8.252;2024-03-08T02:07:56;35.58;;;17.13;;
58242;SDS011;50118;53.232;8.252;2024-03-08T02:10:22;32.08;;;15.52;;
58242;SDS011;50118;53.232;8.252;2024-03-08T02:12:48;37.50;;;17.15;;
58242;SDS011;50118;53.232;8.252;2024-03-08T02:15:14;34.70;;;17.25;;
58242;SDS011;50118;53.232;8.252;2024-03-08T02:17:40;36.05;;;17.25;;
58242;SDS011;50118;53.232;8.252;2024-03-08T02:20:06;36.53;;;18.25;;
58242;SDS011;50118;53.232;8.252;2024-03-08T02:22:34;35.10;;;16.77;;
58242;SDS011;50118;53.232;8.252;2024-03-08T02:24:59;33.13;;;17.35;;
58242;SDS011;50118;53.232;8.252;2024-03-08T02:27:28;37.08;;;17.60;;
58242;SDS011;50118;53.232;8.252;2024-03-08T02:29:55;33.38;;;17.08;;
58242;SDS011;50118;53.232;8.252;2024-03-08T02:32:22;33.90;;;17.80;;
58242;SDS011;50118;53.232;8.252;2024-03-08T02:34:48;39.10;;;18.48;;
58242;SDS011;50118;53.232;8.252;2024-03-08T02:37:14;35.05;;;17.63;;
58242;SDS011;50118;53.232;8.252;2024-03-08T02:39:40;38.65;;;19.23;;
58242;SDS011;50118;53.232;8.252;2024-03-08T02:42:06;39.03;;;18.10;;
58242;SDS011;50118;53.232;8.252;2024-03-08T02:44:32;37.13;;;18.70;;
58242;SDS011;50118;53.232;8.252;2024-03-08T02:46:58;34.08;;;16.95;;
58242;SDS011;50118;53.232;8.252;2024-03-08T02:49:25;32.72;;;17.55;;
58242;SDS011;50118;53.232;8.252;2024-03-08T02:51:52;34.92;;;17.33;;
58242;SDS011;50118;53.232;8.252;2024-03-08T02:54:18;32.15;;;16.83;;
58242;SDS011;50118;53.232;8.252;2024-03-08T02:56:44;34.28;;;17.70;;
58242;SDS011;50118;53.232;8.252;2024-03-08T02:59:11;33.60;;;17.10;;
58242;SDS011;50118;53.232;8.252;2024-03-08T03:01:37;35.90;;;17.00;;
58242;SDS011;50118;53.232;8.252;2024-03-08T03:04:03;38.28;;;17.88;;
58242;SDS011;50118;53.232;8.252;2024-03-08T03:06:29;37.00;;;16.35;;
58242;SDS011;50118;53.232;8.252;2024-03-08T03:08:54;32.63;;;16.08;;
58242;SDS011;50118;53.232;8.252;2024-03-08T03:11:22;37.00;;;16.40;;
58242;SDS011;50118;53.232;8.252;2024-03-08T03:13:48;34.03;;;16.80;;
58242;SDS011;50118;53.232;8.252;2024-03-08T03:16:19;32.83;;;16.02;;
58242;SDS011;50118;53.232;8.252;2024-03-08T03:18:45;30.33;;;14.83;;
58242;SDS011;50118;53.232;8.252;2024-03-08T03:21:11;34.30;;;17.42;;
58242;SDS011;50118;53.232;8.252;2024-03-08T03:23:38;32.15;;;16.38;;
58242;SDS011;50118;53.232;8.252;2024-03-08T03:26:05;36.88;;;17.90;;
58242;SDS011;50118;53.232;8.252;2024-03-08T03:28:32;34.40;;;16.20;;
58242;SDS011;50118;53.232;8.252;2024-03-08T03:30:58;33.13;;;16.63;;
58242;SDS011;50118;53.232;8.252;2024-03-08T03:33:24;35.45;;;17.58;;
58242;SDS011;50118;53.232;8.252;2024-03-08T03:35:50;38.97;;;17.20;;
58242;SDS011;50118;53.232;8.252;2024-03-08T03:38:16;34.60;;;17.10;;
58242;SDS011;50118;53.232;8.252;2024-03-08T03:40:42;37.75;;;18.60;;
58242;SDS011;50118;53.232;8.252;2024-03-08T03:43:10;36.28;;;18.27;;
58242;SDS011;50118;53.232;8.252;2024-03-08T03:45:36;36.17;;;17.25;;
58242;SDS011;50118;53.232;8.252;2024-03-08T03:48:05;35.97;;;19.02;;
58242;SDS011;50118;53.232;8.252;2024-03-08T03:50:31;36.17;;;17.25;;
58242;SDS011;50118;53.232;8.252;2024-03-08T03:52:59;36.78;;;18.48;;
58242;SDS011;50118;53.232;8.252;2024-03-08T03:55:25;41.08;;;18.58;;
58242;SDS011;50118;53.232;8.252;2024-03-08T03:57:50;38.55;;;17.92;;
58242;SDS011;50118;53.232;8.252;2024-03-08T04:00:16;37.90;;;17.83;;
58242;SDS011;50118;53.232;8.252;2024-03-08T04:02:41;33.55;;;17.42;;
58242;SDS011;50118;53.232;8.252;2024-03-08T04:05:08;34.22;;;17.23;;
58242;SDS011;50118;53.232;8.252;2024-03-08T04:07:35;32.13;;;16.23;;
58242;SDS011;50118;53.232;8.252;2024-03-08T04:10:03;34.47;;;15.98;;
58242;SDS011;50118;53.232;8.252;2024-03-08T04:12:33;34.72;;;16.23;;
58242;SDS011;50118;53.232;8.252;2024-03-08T04:14:59;33.08;;;16.67;;
58242;SDS011;50118;53.232;8.252;2024-03-08T04:17:25;33.30;;;16.02;;
58242;SDS011;50118;53.232;8.252;2024-03-08T04:19:51;28.88;;;15.32;;
58242;SDS011;50118;53.232;8.252;2024-03-08T04:22:16;32.50;;;15.73;;
58242;SDS011;50118;53.232;8.252;2024-03-08T04:24:43;28.98;;;14.60;;
58242;SDS011;50118;53.232;8.252;2024-03-08T04:27:09;29.20;;;13.93;;
58242;SDS011;50118;53.232;8.252;2024-03-08T04:29:35;34.00;;;15.88;;
58242;SDS011;50118;53.232;8.252;2024-03-08T04:32:02;31.88;;;14.95;;
58242;SDS011;50118;53.232;8.252;2024-03-08T04:34:29;35.88;;;15.63;;
58242;SDS011;50118;53.232;8.252;2024-03-08T04:36:56;33.65;;;15.18;;
58242;SDS011;50118;53.232;8.252;2024-03-08T04:39:22;35.03;;;17.05;;
58242;SDS011;50118;53.232;8.252;2024-03-08T04:41:48;31.42;;;14.68;;
58242;SDS011;50118;53.232;8.252;2024-03-08T04:44:15;31.60;;;14.10;;
58242;SDS011;50118;53.232;8.252;2024-03-08T04:46:42;33.90;;;16.10;;
58242;SDS011;50118;53.232;8.252;2024-03-08T04:49:08;34.03;;;16.05;;
58242;SDS011;50118;53.232;8.252;2024-03-08T04:51:33;33.22;;;15.13;;
58242;SDS011;50118;53.232;8.252;2024-03-08T04:53:59;33.00;;;16.10;;
58242;SDS011;50118;53.232;8.252;2024-03-08T04:56:25;35.25;;;15.32;;
58242;SDS011;50118;53.232;8.252;2024-03-08T04:58:50;33.72;;;15.05;;
58242;SDS011;50118;53.232;8.252;2024-03-08T05:01:16;34.10;;;15.73;;
58242;SDS011;50118;53.232;8.252;2024-03-08T05:03:42;31.85;;;15.88;;
58242;SDS011;50118;53.232;8.252;2024-03-08T05:06:07;38.63;;;16.80;;
58242;SDS011;50118;53.232;8.252;2024-03-08T05:08:33;33.10;;;16.05;;
58242;SDS011;50118;53.232;8.252;2024-03-08T05:10:59;32.80;;;16.38;;
58242;SDS011;50118;53.232;8.252;2024-03-08T05:13:29;33.53;;;15.55;;
58242;SDS011;50118;53.232;8.252;2024-03-08T05:15:57;34.58;;;15.23;;
58242;SDS011;50118;53.232;8.252;2024-03-08T05:18:23;33.85;;;15.45;;
58242;SDS011;50118;53.232;8.252;2024-03-08T05:20:49;34.53;;;15.82;;
58242;SDS011;50118;53.232;8.252;2024-03-08T05:23:16;37.92;;;16.05;;
58242;SDS011;50118;53.232;8.252;2024-03-08T05:25:41;36.60;;;16.63;;
58242;SDS011;50118;53.232;8.252;2024-03-08T05:28:07;34.90;;;16.40;;
58242;SDS011;50118;53.232;8.252;2024-03-08T05:30:33;33.85;;;16.08;;
58242;SDS011;50118;53.232;8.252;2024-03-08T05:33:01;37.00;;;17.00;;
58242;SDS011;50118;53.232;8.252;2024-03-08T05:35:26;31.92;;;16.77;;
58242;SDS011;50118;53.232;8.252;2024-03-08T05:37:52;40.20;;;16.40;;
58242;SDS011;50118;53.232;8.252;2024-03-08T05:40:17;38.15;;;17.00;;
58242;SDS011;50118;53.232;8.252;2024-03-08T05:42:44;38.22;;;16.95;;
58242;SDS011;50118;53.232;8.252;2024-03-08T05:45:09;38.92;;;17.65;;
58242;SDS011;50118;53.232;8.252;2024-03-08T05:47:36;41.00;;;17.45;;
58242;SDS011;50118;53.232;8.252;2024-03-08T05:50:01;36.88;;;17.90;;
58242;SDS011;50118;53.232;8.252;2024-03-08T05:52:27;37.22;;;17.92;;
58242;SDS011;50118;53.232;8.252;2024-03-08T05:54:53;36.17;;;16.30;;
58242;SDS011;50118;53.232;8.252;2024-03-08T05:57:18;38.33;;;16.38;;
58242;SDS011;50118;53.232;8.252;2024-03-08T05:59:44;35.80;;;16.75;;
58242;SDS011;50118;53.232;8.252;2024-03-08T06:02:09;36.38;;;16.80;;
58242;SDS011;50118;53.232;8.252;2024-03-08T06:04:35;38.80;;;17.75;;
58242;SDS011;50118;53.232;8.252;2024-03-08T06:07:00;37.72;;;17.58;;
58242;SDS011;50118;53.232;8.252;2024-03-08T06:09:28;41.40;;;18.48;;
58242;SDS011;50118;53.232;8.252;2024-03-08T06:11:54;40.13;;;18.58;;
58242;SDS011;50118;53.232;8.252;2024-03-08T06:14:19;39.72;;;17.70;;
58242;SDS011;50118;53.232;8.252;2024-03-08T06:16:45;38.45;;;17.25;;
58242;SDS011;50118;53.232;8.252;2024-03-08T06:19:12;38.75;;;16.52;;
58242;SDS011;50118;53.232;8.252;2024-03-08T06:21:38;38.90;;;17.60;;
58242;SDS011;50118;53.232;8.252;2024-03-08T06:24:03;39.10;;;17.73;;
58242;SDS011;50118;53.232;8.252;2024-03-08T06:26:29;36.90;;;17.17;;
58242;SDS011;50118;53.232;8.252;2024-03-08T06:28:55;37.25;;;16.48;;
58242;SDS011;50118;53.232;8.252;2024-03-08T06:31:20;39.17;;;18.13;;
58242;SDS011;50118;53.232;8.252;2024-03-08T06:33:46;32.90;;;16.48;;
58242;SDS011;50118;53.232;8.252;2024-03-08T06:36:17;38.92;;;17.40;;
58242;SDS011;50118;53.232;8.252;2024-03-08T06:38:49;38.72;;;17.33;;
58242;SDS011;50118;53.232;8.252;2024-03-08T06:41:15;37.92;;;17.52;;
58242;SDS011;50118;53.232;8.252;2024-03-08T06:43:41;36.55;;;18.48;;
58242;SDS011;50118;53.232;8.252;2024-03-08T06:46:07;34.72;;;17.63;;
58242;SDS011;50118;53.232;8.252;2024-03-08T06:48:33;41.00;;;18.58;;
58242;SDS011;50118;53.232;8.252;2024-03-08T06:51:00;38.30;;;17.83;;
58242;SDS011;50118;53.232;8.252;2024-03-08T06:53:25;38.17;;;17.00;;
58242;SDS011;50118;53.232;8.252;2024-03-08T06:55:51;39.03;;;19.13;;
58242;SDS011;50118;53.232;8.252;2024-03-08T06:58:16;33.83;;;18.25;;
58242;SDS011;50118;53.232;8.252;2024-03-08T07:00:42;34.80;;;18.85;;
58242;SDS011;50118;53.232;8.252;2024-03-08T07:03:07;36.80;;;18.40;;
58242;SDS011;50118;53.232;8.252;2024-03-08T07:05:37;34.00;;;18.75;;
58242;SDS011;50118;53.232;8.252;2024-03-08T07:08:03;32.10;;;17.35;;
58242;SDS011;50118;53.232;8.252;2024-03-08T07:10:28;34.15;;;18.13;;
58242;SDS011;50118;53.232;8.252;2024-03-08T07:12:54;32.90;;;17.60;;
58242;SDS011;50118;53.232;8.252;2024-03-08T07:15:20;33.53;;;17.90;;
58242;SDS011;50118;53.232;8.252;2024-03-08T07:17:46;33.08;;;17.55;;
58242;SDS011;50118;53.232;8.252;2024-03-08T07:20:12;33.22;;;17.75;;
58242;SDS011;50118;53.232;8.252;2024-03-08T07:22:39;32.00;;;17.00;;
58242;SDS011;50118;53.232;8.252;2024-03-08T07:25:05;32.28;;;17.83;;
58242;SDS011;50118;53.232;8.252;2024-03-08T07:27:52;33.90;;;17.97;;
58242;SDS011;50118;53.232;8.252;2024-03-08T07:30:23;32.47;;;17.45;;
58242;SDS011;50118;53.232;8.252;2024-03-08T07:33:08;33.35;;;18.30;;
58242;SDS011;50118;53.232;8.252;2024-03-08T07:35:37;32.22;;;17.33;;
58242;SDS011;50118;53.232;8.252;2024-03-08T07:38:05;31.85;;;18.10;;
58242;SDS011;50118;53.232;8.252;2024-03-08T07:40:35;31.42;;;17.13;;
58242;SDS011;50118;53.232;8.252;2024-03-08T07:43:04;29.40;;;17.20;;
58242;SDS011;50118;53.232;8.252;2024-03-08T07:45:29;32.47;;;18.08;;
58242;SDS011;50118;53.232;8.252;2024-03-08T07:47:55;32.17;;;18.23;;
58242;SDS011;50118;53.232;8.252;2024-03-08T07:50:21;34.33;;;18.90;;
58242;SDS011;50118;53.232;8.252;2024-03-08T07:52:47;31.30;;;19.30;;
58242;SDS011;50118;53.232;8.252;2024-03-08T07:55:13;30.67;;;18.60;;
58242;SDS011;50118;53.232;8.252;2024-03-08T07:57:40;31.50;;;18.90;;
58242;SDS011;50118;53.232;8.252;2024-03-08T08:00:05;28.95;;;18.38;;
58242;SDS011;50118;53.232;8.252;2024-03-08T08:02:33;31.60;;;19.10;;
58242;SDS011;50118;53.232;8.252;2024-03-08T08:05:00;32.83;;;19.27;;
58242;SDS011;50118;53.232;8.252;2024-03-08T08:07:25;29.80;;;18.40;;
58242;SDS011;50118;53.232;8.252;2024-03-08T08:09:52;29.27;;;18.38;;
58242;SDS011;50118;53.232;8.252;2024-03-08T08:12:18;32.60;;;18.52;;
58242;SDS011;50118;53.232;8.252;2024-03-08T08:14:43;31.10;;;19.67;;
58242;SDS011;50118;53.232;8.252;2024-03-08T08:17:09;29.23;;;17.83;;
58242;SDS011;50118;53.232;8.252;2024-03-08T08:19:34;27.08;;;18.05;;
58242;SDS011;50118;53.232;8.252;2024-03-08T08:22:01;28.60;;;17.77;;
58242;SDS011;50118;53.232;8.252;2024-03-08T08:24:27;28.08;;;17.75;;
58242;SDS011;50118;53.232;8.252;2024-03-08T08:26:53;25.45;;;17.60;;
58242;SDS011;50118;53.232;8.252;2024-03-08T08:29:18;27.10;;;17.98;;
58242;SDS011;50118;53.232;8.252;2024-03-08T08:31:45;29.08;;;18.33;;
58242;SDS011;50118;53.232;8.252;2024-03-08T08:34:12;29.80;;;17.92;;
58242;SDS011;50118;53.232;8.252;2024-03-08T08:36:38;26.73;;;18.60;;
58242;SDS011;50118;53.232;8.252;2024-03-08T08:39:04;28.08;;;18.17;;
58242;SDS011;50118;53.232;8.252;2024-03-08T08:41:37;25.38;;;17.33;;
58242;SDS011;50118;53.232;8.252;2024-03-08T08:44:03;27.05;;;18.50;;
58242;SDS011;50118;53.232;8.252;2024-03-08T08:46:29;27.92;;;18.20;;
58242;SDS011;50118;53.232;8.252;2024-03-08T08:48:54;28.52;;;18.27;;
58242;SDS011;50118;53.232;8.252;2024-03-08T08:51:20;27.27;;;18.00;;
58242;SDS011;50118;53.232;8.252;2024-03-08T08:53:45;28.70;;;18.20;;
58242;SDS011;50118;53.232;8.252;2024-03-08T08:56:12;27.73;;;18.70;;
58242;SDS011;50118;53.232;8.252;2024-03-08T08:58:42;28.50;;;18.00;;
58242;SDS011;50118;53.232;8.252;2024-03-08T09:01:10;29.42;;;18.40;;
58242;SDS011;50118;53.232;8.252;2024-03-08T09:03:36;26.08;;;17.33;;
58242;SDS011;50118;53.232;8.252;2024-03-08T09:06:05;28.90;;;17.60;;
58242;SDS011;50118;53.232;8.252;2024-03-08T09:08:35;26.90;;;17.38;;
58242;SDS011;50118;53.232;8.252;2024-03-08T09:11:01;27.40;;;18.15;;
58242;SDS011;50118;53.232;8.252;2024-03-08T09:13:26;27.13;;;17.40;;
58242;SDS011;50118;53.232;8.252;2024-03-08T09:15:52;27.10;;;17.75;;
58242;SDS011;50118;53.232;8.252;2024-03-08T09:18:18;27.58;;;18.52;;
58242;SDS011;50118;53.232;8.252;2024-03-08T09:20:44;25.77;;;17.67;;
58242;SDS011;50118;53.232;8.252;2024-03-08T09:23:09;28.63;;;19.02;;
58242;SDS011;50118;53.232;8.252;2024-03-08T09:25:35;27.60;;;18.50;;
58242;SDS011;50118;53.232;8.252;2024-03-08T09:28:00;25.92;;;17.92;;
58242;SDS011;50118;53.232;8.252;2024-03-08T09:30:26;26.95;;;18.60;;
58242;SDS011;50118;53.232;8.252;2024-03-08T09:32:51;27.58;;;18.30;;
58242;SDS011;50118;53.232;8.252;2024-03-08T09:35:17;26.45;;;18.40;;
58242;SDS011;50118;53.232;8.252;2024-03-08T09:37:43;26.98;;;19.10;;
58242;SDS011;50118;53.232;8.252;2024-03-08T09:40:08;25.38;;;17.17;;
58242;SDS011;50118;53.232;8.252;2024-03-08T09:42:34;27.65;;;18.63;;
58242;SDS011;50118;53.232;8.252;2024-03-08T09:45:08;28.60;;;18.75;;
58242;SDS011;50118;53.232;8.252;2024-03-08T09:47:40;25.92;;;18.30;;
58242;SDS011;50118;53.232;8.252;2024-03-08T09:50:07;27.40;;;18.45;;
58242;SDS011;50118;53.232;8.252;2024-03-08T09:52:40;31.60;;;19.25;;
58242;SDS011;50118;53.232;8.252;2024-03-08T09:55:06;28.20;;;18.45;;
58242;SDS011;50118;53.232;8.252;2024-03-08T09:57:36;30.55;;;19.70;;
58242;SDS011;50118;53.232;8.252;2024-03-08T10:00:02;25.50;;;17.48;;
58242;SDS011;50118;53.232;8.252;2024-03-08T10:02:50;26.58;;;17.83;;
58242;SDS011;50118;53.232;8.252;2024-03-08T10:05:17;27.17;;;18.50;;
58242;SDS011;50118;53.232;8.252;2024-03-08T10:07:43;29.13;;;18.70;;
58242;SDS011;50118;53.232;8.252;2024-03-08T10:10:09;27.38;;;17.67;;
58242;SDS011;50118;53.232;8.252;2024-03-08T10:12:37;26.30;;;17.80;;
58242;SDS011;50118;53.232;8.252;2024-03-08T10:15:05;27.88;;;18.73;;
58242;SDS011;50118;53.232;8.252;2024-03-08T10:17:34;25.67;;;17.77;;
58242;SDS011;50118;53.232;8.252;2024-03-08T10:20:00;27.98;;;18.38;;
58242;SDS011;50118;53.232;8.252;2024-03-08T10:22:26;28.92;;;18.65;;
58242;SDS011;50118;53.232;8.252;2024-03-08T10:24:51;26.35;;;18.30;;
58242;SDS011;50118;53.232;8.252;2024-03-08T10:27:17;27.73;;;18.42;;
58242;SDS011;50118;53.232;8.252;2024-03-08T10:29:45;28.85;;;18.40;;
58242;SDS011;50118;53.232;8.252;2024-03-08T10:32:12;28.50;;;19.42;;
58242;SDS011;50118;53.232;8.252;2024-03-08T10:34:38;28.30;;;19.67;;
58242;SDS011;50118;53.232;8.252;2024-03-08T10:37:04;26.42;;;18.60;;
58242;SDS011;50118;53.232;8.252;2024-03-08T10:39:37;28.08;;;19.17;;
58242;SDS011;50118;53.232;8.252;2024-03-08T10:42:03;28.40;;;18.65;;
58242;SDS011;50118;53.232;8.252;2024-03-08T10:47:17;27.77;;;19.00;;
58242;SDS011;50118;53.232;8.252;2024-03-08T10:49:51;26.58;;;17.90;;
58242;SDS011;50118;53.232;8.252;2024-03-08T10:52:20;24.35;;;17.88;;
58242;SDS011;50118;53.232;8.252;2024-03-08T10:54:47;25.67;;;18.70;;
58242;SDS011;50118;53.232;8.252;2024-03-08T10:57:14;26.30;;;17.90;;
58242;SDS011;50118;53.232;8.252;2024-03-08T10:59:42;28.27;;;19.05;;
58242;SDS011;50118;53.232;8.252;2024-03-08T11:02:10;25.85;;;18.33;;
58242;SDS011;50118;53.232;8.252;2024-03-08T11:04:37;26.08;;;18.27;;
58242;SDS011;50118;53.232;8.252;2024-03-08T11:07:03;25.90;;;18.20;;
58242;SDS011;50118;53.232;8.252;2024-03-08T11:09:32;28.95;;;19.70;;
58242;SDS011;50118;53.232;8.252;2024-03-08T11:14:49;27.65;;;18.92;;
58242;SDS011;50118;53.232;8.252;2024-03-08T11:17:15;27.08;;;19.00;;
58242;SDS011;50118;53.232;8.252;2024-03-08T11:19:45;25.45;;;18.45;;
58242;SDS011;50118;53.232;8.252;2024-03-08T11:22:20;24.95;;;17.50;;
58242;SDS011;50118;53.232;8.252;2024-03-08T11:24:48;27.60;;;18.52;;
58242;SDS011;50118;53.232;8.252;2024-03-08T11:27:14;25.95;;;18.88;;
58242;SDS011;50118;53.232;8.252;2024-03-08T11:29:40;28.20;;;19.20;;
58242;SDS011;50118;53.232;8.252;2024-03-08T11:34:47;27.80;;;19.33;;
58242;SDS011;50118;53.232;8.252;2024-03-08T11:37:18;26.90;;;18.52;;
58242;SDS011;50118;53.232;8.252;2024-03-08T11:39:54;28.73;;;18.17;;
58242;SDS011;50118;53.232;8.252;2024-03-08T11:42:24;28.15;;;19.10;;
58242;SDS011;50118;53.232;8.252;2024-03-08T11:44:51;25.80;;;18.85;;
58242;SDS011;50118;53.232;8.252;2024-03-08T11:47:17;24.92;;;17.77;;
58242;SDS011;50118;53.232;8.252;2024-03-08T11:49:43;27.33;;;19.02;;
58242;SDS011;50118;53.232;8.252;2024-03-08T11:52:11;26.92;;;18.10;;
58242;SDS011;50118;53.232;8.252;2024-03-08T11:54:40;27.10;;;18.67;;
58242;SDS011;50118;53.232;8.252;2024-03-08T11:57:17;27.40;;;19.52;;
58242;SDS011;50118;53.232;8.252;2024-03-08T11:59:49;26.60;;;18.70;;
58242;SDS011;50118;53.232;8.252;2024-03-08T12:02:16;23.50;;;17.58;;
58242;SDS011;50118;53.232;8.252;2024-03-08T12:04:43;26.42;;;18.52;;
58242;SDS011;50118;53.232;8.252;2024-03-08T12:07:11;24.90;;;18.58;;
58242;SDS011;50118;53.232;8.252;2024-03-08T12:09:38;25.83;;;18.95;;
58242;SDS011;50118;53.232;8.252;2024-03-08T12:12:03;25.90;;;19.20;;
58242;SDS011;50118;53.232;8.252;2024-03-08T12:14:33;25.30;;;18.30;;
58242;SDS011;50118;53.232;8.252;2024-03-08T12:16:59;28.52;;;18.65;;
58242;SDS011;50118;53.232;8.252;2024-03-08T12:19:28;26.30;;;18.45;;
58242;SDS011;50118;53.232;8.252;2024-03-08T12:21:54;25.35;;;19.05;;
58242;SDS011;50118;53.232;8.252;2024-03-08T12:24:20;24.77;;;18.17;;
58242;SDS011;50118;53.232;8.252;2024-03-08T12:26:47;26.77;;;18.55;;
58242;SDS011;50118;53.232;8.252;2024-03-08T12:29:20;26.20;;;18.48;;
58242;SDS011;50118;53.232;8.252;2024-03-08T12:31:52;25.92;;;17.85;;
58242;SDS011;50118;53.232;8.252;2024-03-08T12:34:20;24.58;;;18.35;;
58242;SDS011;50118;53.232;8.252;2024-03-08T12:36:49;24.75;;;18.40;;
58242;SDS011;50118;53.232;8.252;2024-03-08T12:39:19;25.70;;;18.67;;
58242;SDS011;50118;53.232;8.252;2024-03-08T12:41:51;25.63;;;18.38;;
58242;SDS011;50118;53.232;8.252;2024-03-08T12:44:22;25.88;;;17.98;;
58242;SDS011;50118;53.232;8.252;2024-03-08T12:46:47;26.25;;;18.73;;
58242;SDS011;50118;53.232;8.252;2024-03-08T12:49:13;27.10;;;18.98;;
58242;SDS011;50118;53.232;8.252;2024-03-08T12:51:43;26.85;;;18.65;;
58242;SDS011;50118;53.232;8.252;2024-03-08T12:54:09;27.85;;;18.40;;
58242;SDS011;50118;53.232;8.252;2024-03-08T12:56:35;25.23;;;18.10;;
58242;SDS011;50118;53.232;8.252;2024-03-08T12:59:02;25.35;;;17.90;;
58242;SDS011;50118;53.232;8.252;2024-03-08T13:01:30;25.95;;;17.83;;
58242;SDS011;50118;53.232;8.252;2024-03-08T13:03:59;24.35;;;17.77;;
58242;SDS011;50118;53.232;8.252;2024-03-08T13:06:29;26.23;;;17.98;;
58242;SDS011;50118;53.232;8.252;2024-03-08T13:08:58;26.73;;;18.45;;
58242;SDS011;50118;53.232;8.252;2024-03-08T13:11:24;25.13;;;17.23;;
58242;SDS011;50118;53.232;8.252;2024-03-08T13:13:50;25.48;;;17.42;;
58242;SDS011;50118;53.232;8.252;2024-03-08T13:16:17;25.13;;;16.73;;
58242;SDS011;50118;53.232;8.252;2024-03-08T13:18:44;22.80;;;16.55;;
58242;SDS011;50118;53.232;8.252;2024-03-08T13:21:14;24.83;;;17.17;;
58242;SDS011;50118;53.232;8.252;2024-03-08T13:23:43;24.45;;;16.70;;
58242;SDS011;50118;53.232;8.252;2024-03-08T13:26:14;25.15;;;17.75;;
58242;SDS011;50118;53.232;8.252;2024-03-08T13:28:47;25.48;;;16.92;;
58242;SDS011;50118;53.232;8.252;2024-03-08T13:31:21;25.10;;;17.23;;
58242;SDS011;50118;53.232;8.252;2024-03-08T13:33:46;23.95;;;17.45;;
58242;SDS011;50118;53.232;8.252;2024-03-08T13:36:12;22.95;;;16.33;;
58242;SDS011;50118;53.232;8.252;2024-03-08T13:38:45;25.83;;;17.75;;
58242;SDS011;50118;53.232;8.252;2024-03-08T13:41:11;23.90;;;16.60;;
58242;SDS011;50118;53.232;8.252;2024-03-08T13:43:40;24.30;;;16.92;;
58242;SDS011;50118;53.232;8.252;2024-03-08T13:46:06;21.40;;;16.45;;
58242;SDS011;50118;53.232;8.252;2024-03-08T13:48:32;24.55;;;16.92;;
58242;SDS011;50118;53.232;8.252;2024-03-08T13:50:58;22.50;;;16.13;;
58242;SDS011;50118;53.232;8.252;2024-03-08T13:53:25;24.42;;;16.80;;
58242;SDS011;50118;53.232;8.252;2024-03-08T13:55:51;25.48;;;16.67;;
58242;SDS011;50118;53.232;8.252;2024-03-08T13:58:16;25.15;;;17.30;;
58242;SDS011;50118;53.232;8.252;2024-03-08T14:00:42;25.50;;;17.02;;
58242;SDS011;50118;53.232;8.252;2024-03-08T14:03:10;23.48;;;17.05;;
58242;SDS011;50118;53.232;8.252;2024-03-08T14:05:40;23.75;;;17.33;;
58242;SDS011;50118;53.232;8.252;2024-03-08T14:08:07;25.17;;;17.10;;
58242;SDS011;50118;53.232;8.252;2024-03-08T14:10:37;25.15;;;17.40;;
58242;SDS011;50118;53.232;8.252;2024-03-08T14:13:03;23.88;;;17.63;;
58242;SDS011;50118;53.232;8.252;2024-03-08T14:15:32;21.98;;;15.93;;
58242;SDS011;50118;53.232;8.252;2024-03-08T14:17:59;22.65;;;16.38;;
58242;SDS011;50118;53.232;8.252;2024-03-08T14:20:26;22.35;;;16.33;;
58242;SDS011;50118;53.232;8.252;2024-03-08T14:22:52;25.75;;;18.15;;
58242;SDS011;50118;53.232;8.252;2024-03-08T14:25:19;23.75;;;17.02;;
58242;SDS011;50118;53.232;8.252;2024-03-08T14:27:48;24.85;;;16.58;;